Time;durP1;ratioP1;P1;durP2;ratioP2;P2;SDS_P1;SDS_P2;PMS_P1;PMS_P2;Temp;Humidity;BMP_temperature;BMP_pressure;BME280_temperature;BME280_humidity;BME280_pressure;Samples;Min_cycle;Max_cycle;Signal;HPM_P1;HPM_P2
2022/05/07 00:01:50;;;;;;;25.42;16.98;;;13.90;86.40;;;;;;4974763;28;20035;-14
2022/05/07 00:04:15;;;;;;;23.83;15.57;;;13.90;86.40;;;;;;4974271;28;20470;-16
2022/05/07 00:06:41;;;;;;;23.00;16.02;;;13.90;86.40;;;;;;4974406;28;20041;-15
2022/05/07 00:09:07;;;;;;;23.25;15.20;;;13.90;86.40;;;;;;4974855;28;20035;-15
2022/05/07 00:11:33;;;;;;;28.67;17.77;;;13.90;86.40;;;;;;4974394;28;20031;-14
2022/05/07 00:13:59;;;;;;;24.35;16.35;;;13.90;86.50;;;;;;4974323;28;20031;-12
2022/05/07 00:19:09;;;;;;;29.52;18.30;;;13.80;86.50;;;;;;4974856;28;20081;-14
2022/05/07 00:21:35;;;;;;;25.48;16.50;;;13.80;86.50;;;;;;4974619;28;20034;-14
2022/05/07 00:24:02;;;;;;;23.85;16.38;;;13.80;86.60;;;;;;4974595;28;20483;-15
2022/05/07 00:26:29;;;;;;;22.48;15.65;;;13.80;86.70;;;;;;4974355;28;20031;-14
2022/05/07 00:28:55;;;;;;;27.52;16.90;;;13.80;86.70;;;;;;4974023;28;20046;-13
2022/05/07 00:31:21;;;;;;;20.92;13.93;;;13.80;86.70;;;;;;4974527;28;20046;-15
2022/05/07 00:33:46;;;;;;;19.98;14.00;;;13.70;86.80;;;;;;4974527;28;20117;-15
2022/05/07 00:36:12;;;;;;;20.27;13.98;;;13.70;86.90;;;;;;4974137;28;20079;-15
2022/05/07 00:38:38;;;;;;;30.98;19.10;;;13.70;86.90;;;;;;4974379;28;20034;-16
2022/05/07 00:41:04;;;;;;;21.50;14.15;;;13.70;86.90;;;;;;4974364;28;20035;-14
2022/05/07 00:43:37;;;;;;;24.05;16.42;;;13.80;86.90;;;;;;4974033;28;20023;-14
2022/05/07 00:46:04;;;;;;;;;;;13.70;86.90;;;;;;4974796;28;20034;-16
2022/05/07 00:48:31;;;;;;;28.23;17.65;;;13.70;87.00;;;;;;4974034;28;19914;-15
2022/05/07 00:53:44;;;;;;;22.10;15.18;;;13.70;86.90;;;;;;4974515;28;20139;-14
2022/05/07 00:56:10;;;;;;;22.40;15.70;;;13.70;86.80;;;;;;4974245;28;20031;-16
2022/05/07 00:58:36;;;;;;;22.95;15.05;;;13.70;86.90;;;;;;4972456;28;20093;-14
2022/05/07 01:01:02;;;;;;;30.08;19.63;;;13.70;86.80;;;;;;4974010;28;20118;-14
2022/05/07 01:03:28;;;;;;;22.63;15.35;;;13.70;86.90;;;;;;4974072;28;20406;-14
2022/05/07 01:05:54;;;;;;;21.85;14.52;;;13.60;87.00;;;;;;4973965;28;20478;-14
2022/05/07 01:08:20;;;;;;;22.88;14.63;;;13.60;87.00;;;;;;4973725;28;20037;-15
2022/05/07 01:10:48;;;;;;;23.00;15.15;;;13.60;87.10;;;;;;4976182;28;20387;-16
2022/05/07 01:13:14;;;;;;;22.77;15.75;;;13.60;87.10;;;;;;4977431;28;20037;-15
2022/05/07 01:15:44;;;;;;;22.10;14.27;;;13.50;87.10;;;;;;4977543;28;20031;-15
2022/05/07 01:18:15;;;;;;;25.55;15.63;;;13.50;87.10;;;;;;4977708;28;20023;-16
2022/05/07 01:20:42;;;;;;;19.90;13.88;;;13.50;87.20;;;;;;4977404;28;20026;-16
2022/05/07 01:23:08;;;;;;;21.88;14.50;;;13.50;87.30;;;;;;4977331;28;20031;-14
2022/05/07 01:25:35;;;;;;;21.95;14.82;;;13.40;87.30;;;;;;4977462;28;20019;-14
2022/05/07 01:28:01;;;;;;;21.10;13.38;;;13.50;87.30;;;;;;4975810;28;20503;-14
2022/05/07 01:30:27;;;;;;;16.55;11.45;;;13.50;87.30;;;;;;4977180;28;20046;-17
2022/05/07 01:32:53;;;;;;;22.10;14.40;;;13.50;87.30;;;;;;4978036;28;20387;-14
2022/05/07 01:35:19;;;;;;;19.83;13.23;;;13.40;87.20;;;;;;4977308;28;20030;-14
2022/05/07 01:37:46;;;;;;;21.23;14.32;;;13.40;87.20;;;;;;4977412;28;20062;-16
2022/05/07 01:40:11;;;;;;;20.50;13.50;;;13.40;87.20;;;;;;4977010;28;20026;-17
2022/05/07 01:42:39;;;;;;;24.95;16.45;;;13.40;87.20;;;;;;4976988;28;20069;-15
2022/05/07 01:45:06;;;;;;;22.98;14.20;;;13.40;87.20;;;;;;4976963;28;20026;-14
2022/05/07 01:50:25;;;;;;;21.40;14.10;;;13.40;87.10;;;;;;4976990;28;20066;-15
2022/05/07 01:52:51;;;;;;;21.83;14.57;;;13.40;87.10;;;;;;4976793;28;20034;-15
2022/05/07 01:55:17;;;;;;;20.92;13.90;;;13.40;87.10;;;;;;4977332;28;20045;-14
2022/05/07 01:57:43;;;;;;;21.30;14.57;;;13.40;87.20;;;;;;4976870;28;20109;-13
2022/05/07 02:00:09;;;;;;;19.00;13.45;;;13.40;87.20;;;;;;4976836;28;20102;-14
2022/05/07 02:02:35;;;;;;;25.67;16.55;;;13.40;87.20;;;;;;4976430;28;20487;-14
2022/05/07 02:05:02;;;;;;;20.15;13.98;;;13.40;87.20;;;;;;4976589;28;20544;-14
2022/05/07 02:07:27;;;;;;;19.25;13.68;;;13.40;87.20;;;;;;4976834;28;20022;-14
2022/05/07 02:09:53;;;;;;;32.10;20.48;;;13.40;87.30;;;;;;4976631;28;20386;-14
2022/05/07 02:12:19;;;;;;;31.60;18.42;;;13.40;87.30;;;;;;4976214;28;20038;-14
2022/05/07 02:14:45;;;;;;;27.13;18.23;;;13.40;87.20;;;;;;4976350;28;20031;-14
2022/05/07 02:17:11;;;;;;;25.33;17.30;;;13.40;87.30;;;;;;4976363;28;20033;-15
2022/05/07 02:19:37;;;;;;;32.97;20.67;;;13.40;87.40;;;;;;4976541;28;20463;-14
2022/05/07 02:22:03;;;;;;;31.40;19.88;;;13.40;87.40;;;;;;4976181;28;20082;-14
2022/05/07 02:24:30;;;;;;;26.02;16.95;;;13.40;87.40;;;;;;4976016;28;20019;-15
2022/05/07 02:26:56;;;;;;;25.25;16.58;;;13.30;87.50;;;;;;4976196;28;20562;-14
2022/05/07 02:29:22;;;;;;;24.20;15.48;;;13.30;87.50;;;;;;4976060;28;20121;-14
2022/05/07 02:32:03;;;;;;;21.67;15.00;;;13.40;87.60;;;;;;4976400;28;20118;-15
2022/05/07 02:34:31;;;;;;;25.48;15.75;;;13.30;87.60;;;;;;4975870;28;20034;-14
2022/05/07 02:36:57;;;;;;;21.63;13.40;;;13.40;87.70;;;;;;4976464;28;20101;-14
2022/05/07 02:39:23;;;;;;;20.30;13.65;;;13.40;87.70;;;;;;4975982;28;20027;-17
2022/05/07 02:44:33;;;;;;;21.33;14.05;;;13.40;87.70;;;;;;4975981;28;20037;-16
2022/05/07 02:46:59;;;;;;;22.83;15.02;;;13.40;87.60;;;;;;4976028;28;20031;-15
2022/05/07 02:49:25;;;;;;;22.88;14.93;;;13.40;87.60;;;;;;4976341;28;20039;-15
2022/05/07 02:51:51;;;;;;;21.83;14.07;;;13.40;87.50;;;;;;4976009;28;20122;-14
2022/05/07 02:54:17;;;;;;;23.33;14.70;;;13.40;87.40;;;;;;4975536;28;20078;-16
2022/05/07 02:56:43;;;;;;;21.42;13.95;;;13.40;87.40;;;;;;4975934;28;20057;-15
2022/05/07 02:59:09;;;;;;;21.65;14.00;;;13.40;87.50;;;;;;4990784;28;20027;-15
2022/05/07 03:01:35;;;;;;;27.17;17.98;;;13.50;87.50;;;;;;4975596;28;20030;-15
2022/05/07 03:04:01;;;;;;;21.05;14.63;;;13.50;87.50;;;;;;4975489;28;20027;-15
2022/05/07 03:06:27;;;;;;;31.23;19.25;;;13.50;87.50;;;;;;4975508;28;20074;-14
2022/05/07 03:08:53;;;;;;;24.45;15.45;;;13.40;87.50;;;;;;4974086;28;20030;-14
2022/05/07 03:11:19;;;;;;;26.90;17.80;;;13.40;87.50;;;;;;4975239;28;20077;-14
2022/05/07 03:13:45;;;;;;;25.52;16.60;;;13.40;87.60;;;;;;4975385;28;20038;-15
2022/05/07 03:16:11;;;;;;;23.42;17.13;;;13.40;87.60;;;;;;4975210;28;20034;-14
2022/05/07 03:18:37;;;;;;;22.98;16.00;;;13.40;87.70;;;;;;4975071;28;20019;-14
2022/05/07 03:21:03;;;;;;;24.08;16.13;;;13.40;87.80;;;;;;4975597;28;20423;-15
2022/05/07 03:23:29;;;;;;;25.83;16.65;;;13.40;87.80;;;;;;4975376;28;20121;-15
2022/05/07 03:25:55;;;;;;;24.67;16.40;;;13.40;87.80;;;;;;4975036;28;20113;-14
2022/05/07 03:28:21;;;;;;;23.70;15.82;;;13.40;87.70;;;;;;4974470;28;20074;-16
2022/05/07 03:30:47;;;;;;;27.83;17.48;;;13.40;87.80;;;;;;4974963;28;20029;-15
2022/05/07 03:33:14;;;;;;;26.48;17.88;;;13.40;87.80;;;;;;4974539;28;20018;-14
2022/05/07 03:35:40;;;;;;;27.60;18.00;;;13.40;87.80;;;;;;4975216;28;20109;-15
2022/05/07 03:38:06;;;;;;;32.05;19.92;;;13.50;87.80;;;;;;4974967;28;20019;-15
2022/05/07 03:40:32;;;;;;;41.80;24.00;;;13.50;87.80;;;;;;4974671;28;20035;-15
2022/05/07 03:42:59;;;;;;;29.73;19.05;;;13.50;87.70;;;;;;4974971;28;20035;-15
2022/05/07 03:45:25;;;;;;;30.38;19.38;;;13.50;87.70;;;;;;4975137;28;20070;-15
2022/05/07 03:47:51;;;;;;;27.55;18.50;;;13.50;87.70;;;;;;4975040;28;20043;-14
2022/05/07 03:50:17;;;;;;;26.75;17.73;;;13.50;87.70;;;;;;4974430;28;20462;-15
2022/05/07 03:55:27;;;;;;;39.58;23.50;;;13.50;87.70;;;;;;4975105;28;20394;-14
2022/05/07 03:57:54;;;;;;;34.17;20.80;;;13.50;87.60;;;;;;4974673;28;20027;-14
2022/05/07 04:00:20;;;;;;;26.17;17.58;;;13.50;87.60;;;;;;4974333;28;20058;-15
2022/05/07 04:02:46;;;;;;;30.88;19.10;;;13.50;87.70;;;;;;4974780;28;20030;-14
2022/05/07 04:05:12;;;;;;;28.95;18.73;;;13.50;87.70;;;;;;4975022;28;20496;-15
2022/05/07 04:07:38;;;;;;;27.13;17.25;;;13.50;87.80;;;;;;4973209;28;20030;-15
2022/05/07 04:10:05;;;;;;;27.30;18.27;;;13.50;87.80;;;;;;4974372;28;20038;-14
2022/05/07 04:12:31;;;;;;;43.58;25.38;;;13.50;87.90;;;;;;4974544;28;20027;-15
2022/05/07 04:15:00;;;;;;;41.75;24.35;;;13.50;87.80;;;;;;4974759;28;20097;-14
2022/05/07 04:17:27;;;;;;;28.65;18.52;;;13.50;87.80;;;;;;4974668;28;20490;-14
2022/05/07 04:19:54;;;;;;;26.65;17.35;;;13.40;87.80;;;;;;4974341;28;20023;-15
2022/05/07 04:22:20;;;;;;;24.65;17.08;;;13.40;87.90;;;;;;4974391;28;20035;-14
2022/05/07 04:24:46;;;;;;;27.60;18.38;;;13.40;88.00;;;;;;4974367;28;20034;-14
2022/05/07 04:27:12;;;;;;;28.00;17.60;;;13.40;88.10;;;;;;4974012;28;20031;-15
2022/05/07 04:29:38;;;;;;;28.90;18.30;;;13.40;88.00;;;;;;4974385;28;20034;-15
2022/05/07 04:32:04;;;;;;;29.98;19.63;;;13.50;88.10;;;;;;4974226;28;20085;-14
2022/05/07 04:34:30;;;;;;;35.53;21.23;;;13.50;88.10;;;;;;4974275;28;20109;-15
2022/05/07 04:36:57;;;;;;;27.80;18.55;;;13.50;88.00;;;;;;4974151;28;20606;-15
2022/05/07 04:39:23;;;;;;;32.85;21.10;;;13.50;88.00;;;;;;4974600;28;20035;-15
2022/05/07 04:41:49;;;;;;;33.10;21.00;;;13.50;88.00;;;;;;4974042;28;20031;-14
2022/05/07 04:44:15;;;;;;;38.88;23.58;;;13.60;88.00;;;;;;4975744;28;20026;-15
2022/05/07 04:46:42;;;;;;;32.17;20.25;;;13.60;87.90;;;;;;4978254;28;20027;-15
2022/05/07 04:49:07;;;;;;;35.55;21.67;;;13.60;87.80;;;;;;4978206;28;20463;-14
2022/05/07 04:51:33;;;;;;;42.25;24.58;;;13.60;87.80;;;;;;4977863;28;20023;-15
2022/05/07 04:53:59;;;;;;;42.55;25.40;;;13.60;87.70;;;;;;4976649;28;20399;-15
2022/05/07 04:56:25;;;;;;;45.05;25.35;;;13.60;87.80;;;;;;4977580;28;20033;-14
2022/05/07 04:58:52;;;;;;;44.05;26.05;;;13.60;87.80;;;;;;4977618;28;20061;-15
2022/05/07 05:01:18;;;;;;;46.60;27.33;;;13.60;87.70;;;;;;4978044;28;20022;-15
2022/05/07 05:03:43;;;;;;;50.72;28.75;;;13.60;87.90;;;;;;4977867;28;20414;-15
2022/05/07 05:06:10;;;;;;;41.25;25.33;;;13.50;87.80;;;;;;4977961;28;20054;-15
2022/05/07 05:08:36;;;;;;;40.33;23.02;;;13.50;87.90;;;;;;4977630;28;20046;-15
2022/05/07 05:11:02;;;;;;;37.45;22.75;;;13.50;87.90;;;;;;4977878;28;20399;-15
2022/05/07 05:13:27;;;;;;;53.33;29.67;;;13.60;88.00;;;;;;4977724;28;20023;-15
2022/05/07 05:15:53;;;;;;;62.53;32.40;;;13.60;88.10;;;;;;4977472;28;20026;-15
2022/05/07 05:18:19;;;;;;;51.50;29.05;;;13.60;88.10;;;;;;4977453;28;20035;-15
2022/05/07 05:20:45;;;;;;;47.28;27.75;;;13.60;88.00;;;;;;4977376;28;20419;-15
2022/05/07 05:23:11;;;;;;;45.05;26.25;;;13.60;88.10;;;;;;4977842;28;20061;-15
2022/05/07 05:25:38;;;;;;;50.67;28.40;;;13.60;88.10;;;;;;4977489;28;20089;-15
2022/05/07 05:28:04;;;;;;;62.03;31.58;;;13.60;88.30;;;;;;4976881;28;20062;-15
2022/05/07 05:30:30;;;;;;;39.00;24.73;;;13.60;88.20;;;;;;4977058;28;20039;-14
2022/05/07 05:32:55;;;;;;;53.67;29.67;;;13.60;88.20;;;;;;4977480;28;20034;-14
2022/05/07 05:35:22;;;;;;;55.95;31.70;;;13.50;88.20;;;;;;4977605;28;20030;-16
2022/05/07 05:37:48;;;;;;;51.22;28.88;;;13.60;88.20;;;;;;4977320;28;20033;-14
2022/05/07 05:40:14;;;;;;;38.70;23.75;;;13.60;88.20;;;;;;4976809;28;20458;-17
2022/05/07 05:42:40;;;;;;;41.60;25.08;;;13.60;88.30;;;;;;4977303;28;20058;-15
2022/05/07 05:45:09;;;;;;;40.08;23.25;;;13.60;88.30;;;;;;4976843;28;20479;-15
2022/05/07 05:47:35;;;;;;;42.28;23.38;;;13.70;88.40;;;;;;4977237;28;20068;-14
2022/05/07 05:50:01;;;;;;;39.03;25.35;;;13.70;88.50;;;;;;4975603;28;20038;-14
2022/05/07 05:52:27;;;;;;;42.10;26.05;;;13.70;88.40;;;;;;4976925;28;20063;-16
2022/05/07 05:54:53;;;;;;;38.83;23.63;;;13.80;88.40;;;;;;4977032;28;20023;-15
2022/05/07 05:57:20;;;;;;;46.17;30.15;;;13.80;88.30;;;;;;4976656;28;20041;-14
2022/05/07 05:59:45;;;;;;;70.57;41.90;;;13.80;88.20;;;;;;4976934;28;20023;-15
2022/05/07 06:02:11;;;;;;;54.83;35.47;;;13.90;88.20;;;;;;4976661;28;20482;-15
2022/05/07 06:04:37;;;;;;;60.00;38.42;;;13.90;88.20;;;;;;4976735;28;20023;-14
2022/05/07 06:07:03;;;;;;;76.72;47.92;;;13.90;88.20;;;;;;4976983;28;20395;-15
2022/05/07 06:09:29;;;;;;;62.03;38.10;;;13.90;88.10;;;;;;4976419;28;20041;-15
2022/05/07 06:11:57;;;;;;;49.67;31.25;;;14.00;88.00;;;;;;4976679;28;20106;-16
2022/05/07 06:14:23;;;;;;;47.25;29.55;;;14.00;88.10;;;;;;4976161;28;20527;-16
2022/05/07 06:16:48;;;;;;;57.05;32.95;;;13.90;88.10;;;;;;4976500;28;20026;-15
2022/05/07 06:19:14;;;;;;;53.47;32.67;;;13.90;88.30;;;;;;4976429;28;20403;-16
2022/05/07 06:21:40;;;;;;;56.15;32.35;;;13.90;88.10;;;;;;4976317;28;20386;-15
2022/05/07 06:29:36;;;;;;;50.50;35.33;;;13.90;88.30;;;;;;4976106;28;20078;-14
2022/05/07 06:32:03;;;;;;;51.72;31.10;;;13.90;88.30;;;;;;4976212;28;20027;-14
2022/05/07 06:34:28;;;;;;;45.97;28.90;;;13.90;88.30;;;;;;4976178;28;20023;-14
2022/05/07 06:36:57;;;;;;;39.95;26.20;;;13.90;88.40;;;;;;4976047;28;20497;-15
2022/05/07 06:39:24;;;;;;;48.58;30.55;;;13.90;88.30;;;;;;4975939;28;20023;-13
2022/05/07 06:41:51;;;;;;;38.83;25.42;;;13.90;88.40;;;;;;4976068;28;20038;-15
2022/05/07 06:44:17;;;;;;;36.58;23.90;;;14.00;88.30;;;;;;4975699;28;20089;-15
2022/05/07 06:46:44;;;;;;;54.83;31.90;;;14.10;88.40;;;;;;4974659;28;20109;-14
2022/05/07 06:49:11;;;;;;;36.63;24.88;;;14.20;88.40;;;;;;4975725;28;20035;-15
2022/05/07 06:51:37;;;;;;;41.88;26.92;;;14.20;88.40;;;;;;4975992;28;20050;-17
2022/05/07 06:54:03;;;;;;;37.15;25.70;;;14.30;88.20;;;;;;4975672;28;20038;-15
2022/05/07 06:56:29;;;;;;;39.33;25.50;;;14.40;88.30;;;;;;4975905;28;20030;-15
2022/05/07 06:58:55;;;;;;;40.00;28.77;;;14.40;88.10;;;;;;4975765;28;20040;-14
2022/05/07 07:01:21;;;;;;;35.90;23.50;;;14.50;88.00;;;;;;4975582;28;20027;-15
2022/05/07 07:03:47;;;;;;;38.40;24.35;;;14.60;88.00;;;;;;4990482;28;20085;-14
2022/05/07 07:06:13;;;;;;;31.92;21.65;;;14.60;87.90;;;;;;4975472;28;20081;-17
2022/05/07 07:08:39;;;;;;;30.20;18.65;;;14.60;87.80;;;;;;4974652;28;20023;-15
2022/05/07 07:11:05;;;;;;;31.08;20.30;;;14.70;87.80;;;;;;4975406;28;20394;-16
2022/05/07 07:13:31;;;;;;;31.45;20.58;;;14.70;87.60;;;;;;4975538;28;20095;-16
2022/05/07 07:15:57;;;;;;;24.80;16.60;;;14.70;87.50;;;;;;4975523;28;20454;-15
2022/05/07 07:18:23;;;;;;;32.50;20.52;;;14.70;87.60;;;;;;4975146;28;20478;-15
2022/05/07 07:20:49;;;;;;;33.17;21.30;;;14.70;88.00;;;;;;4975215;28;20058;-15
2022/05/07 07:23:15;;;;;;;27.77;17.58;;;14.70;87.90;;;;;;4975547;28;20046;-15
2022/05/07 07:25:42;;;;;;;31.48;19.88;;;14.80;87.90;;;;;;4975179;28;20110;-15
2022/05/07 07:28:09;;;;;;;31.85;18.90;;;14.80;87.40;;;;;;4974679;28;20454;-16
2022/05/07 07:30:35;;;;;;;33.58;20.92;;;14.80;87.50;;;;;;4974870;28;20031;-16
2022/05/07 07:33:02;;;;;;;28.83;18.52;;;14.70;87.60;;;;;;4975385;28;20031;-16
2022/05/07 07:35:28;;;;;;;33.65;20.02;;;14.80;87.50;;;;;;4975204;28;20035;-14
2022/05/07 07:37:55;;;;;;;32.03;19.08;;;14.80;87.70;;;;;;4973723;28;20041;-14
2022/05/07 07:40:20;;;;;;;24.35;17.00;;;14.80;87.90;;;;;;4974955;28;20023;-14
2022/05/07 07:42:46;;;;;;;25.73;16.58;;;14.80;87.80;;;;;;4975122;28;20391;-14
2022/05/07 07:48:03;;;;;;;20.50;14.02;;;15.00;87.60;;;;;;4975123;28;20545;-16
2022/05/07 07:50:34;;;;;;;28.98;16.88;;;15.10;87.70;;;;;;4974795;28;20031;-14
2022/05/07 07:53:03;;;;;;;26.00;16.83;;;15.20;87.40;;;;;;4974996;28;20043;-16
2022/05/07 07:55:30;;;;;;;23.88;13.98;;;15.30;87.10;;;;;;4974998;28;20098;-13
2022/05/07 07:58:00;;;;;;;22.38;14.55;;;15.30;86.50;;;;;;4974763;28;20027;-14
2022/05/07 08:00:28;;;;;;;17.80;12.30;;;15.30;86.30;;;;;;4974711;28;20106;-15
2022/05/07 08:03:00;;;;;;;20.55;14.30;;;15.30;86.40;;;;;;4974771;28;20367;-17
2022/05/07 08:05:27;;;;;;;15.98;11.02;;;15.40;86.60;;;;;;4974499;28;20534;-15
2022/05/07 08:13:24;;;;;;;16.52;10.52;;;15.60;86.20;;;;;;4974660;28;20085;-16
2022/05/07 08:15:50;;;;;;;17.02;10.80;;;15.80;86.30;;;;;;4974346;28;20117;-17
2022/05/07 08:18:17;;;;;;;15.88;11.18;;;15.90;86.20;;;;;;4974092;28;20038;-14
2022/05/07 08:20:44;;;;;;;15.57;10.50;;;16.10;86.10;;;;;;4974968;28;20031;-17
2022/05/07 08:23:11;;;;;;;16.40;9.68;;;16.20;85.90;;;;;;4974838;28;20031;-15
2022/05/07 08:25:37;;;;;;;16.13;10.85;;;16.40;85.40;;;;;;4974479;28;20451;-17
2022/05/07 08:28:05;;;;;;;17.35;11.23;;;16.40;84.80;;;;;;4972728;28;20055;-15
2022/05/07 08:30:31;;;;;;;16.95;11.98;;;16.50;84.30;;;;;;4973998;28;20033;-16
2022/05/07 08:32:58;;;;;;;15.07;10.93;;;16.40;83.10;;;;;;5094168;23;20063;-16
2022/05/07 08:35:24;;;;;;;12.55;8.23;;;16.40;83.90;;;;;;4973066;28;20110;-16
2022/05/07 08:37:50;;;;;;;17.92;11.23;;;16.40;83.70;;;;;;4974523;28;20046;-16
2022/05/07 08:40:19;;;;;;;15.57;10.10;;;16.40;84.40;;;;;;5046030;23;20058;-17
2022/05/07 08:42:45;;;;;;;14.93;9.85;;;16.40;84.80;;;;;;4955249;28;20038;-18
2022/05/07 08:45:13;;;;;;;13.65;9.27;;;16.70;85.10;;;;;;4955100;29;20078;-17
2022/05/07 08:47:43;;;;;;;13.52;9.25;;;16.80;84.60;;;;;;4955159;29;20106;-15
2022/05/07 08:50:11;;;;;;;16.05;10.93;;;16.90;83.70;;;;;;4955131;28;20546;-16
2022/05/07 08:52:42;;;;;;;15.07;9.20;;;17.10;83.20;;;;;;4954637;29;20031;-16
2022/05/07 08:55:16;;;;;;;16.55;11.55;;;17.10;82.70;;;;;;4954786;28;20027;-15
2022/05/07 08:57:44;;;;;;;13.52;8.98;;;17.10;83.10;;;;;;4954785;28;20032;-14
2022/05/07 09:00:11;;;;;;;14.30;9.77;;;17.10;83.20;;;;;;4955013;29;20028;-14
2022/05/07 09:03:03;;;;;;;16.90;11.80;;;17.20;83.60;;;;;;4954537;29;20019;-16
2022/05/07 09:05:34;;;;;;;13.57;9.50;;;17.40;83.50;;;;;;4953548;28;20403;-17
2022/05/07 09:08:01;;;;;;;16.35;11.35;;;17.60;82.90;;;;;;4954781;29;20482;-15
2022/05/07 09:10:32;;;;;;;17.08;11.13;;;17.80;82.20;;;;;;4954220;29;20497;-15
2022/05/07 09:13:17;;;;;;;15.65;9.73;;;17.90;82.40;;;;;;4954931;28;20032;-15
2022/05/07 09:15:57;;;;;;;16.20;10.88;;;17.90;81.70;;;;;;4954561;29;20406;-14
2022/05/07 09:18:25;;;;;;;17.42;12.00;;;17.90;81.80;;;;;;4954349;28;20062;-15
2022/05/07 09:21:17;;;;;;;14.07;11.20;;;18.00;81.50;;;;;;4954806;28;20020;-16
2022/05/07 09:24:00;;;;;;;14.00;9.90;;;18.00;81.10;;;;;;4954753;28;20034;-14
2022/05/07 09:26:39;;;;;;;17.65;10.93;;;18.00;80.70;;;;;;4954663;29;20472;-15
2022/05/07 09:29:14;;;;;;;20.40;12.63;;;18.00;80.40;;;;;;4954421;28;20042;-16
2022/05/07 09:31:42;;;;;;;16.30;10.52;;;17.90;80.90;;;;;;4956425;28;20386;-17
2022/05/07 09:37:20;;;;;;;12.35;8.95;;;18.20;80.50;;;;;;4958216;29;20128;-16
2022/05/07 09:39:48;;;;;;;15.82;11.13;;;18.40;80.70;;;;;;4957891;29;20043;-15
2022/05/07 09:42:18;;;;;;;12.63;9.13;;;18.60;80.70;;;;;;4957672;28;20070;-16
2022/05/07 09:44:45;;;;;;;14.43;10.43;;;18.80;79.90;;;;;;4957707;29;20475;-16
2022/05/07 09:47:12;;;;;;;13.60;10.20;;;19.00;78.80;;;;;;4957977;28;20027;-17
2022/05/07 09:52:32;;;;;;;13.85;8.68;;;19.20;78.00;;;;;;4957743;29;20049;-15
2022/05/07 09:57:43;;;;;;;11.25;8.82;;;19.30;78.30;;;;;;4957850;29;20502;-14
2022/05/07 10:00:13;;;;;;;15.10;10.63;;;19.50;78.30;;;;;;4957454;29;20023;-16
2022/05/07 10:03:08;;;;;;;13.52;11.02;;;19.60;76.60;;;;;;4957706;28;20027;-14
2022/05/07 10:09:23;;;;;;;13.55;9.80;;;19.70;77.40;;;;;;5044654;23;20051;-15
2022/05/07 10:11:55;;;;;;;14.47;10.77;;;19.80;76.90;;;;;;4976632;28;20110;-15
2022/05/07 10:14:30;;;;;;;13.00;9.97;;;19.90;76.60;;;;;;4976635;28;20047;-15
2022/05/07 10:17:11;;;;;;;10.70;8.07;;;19.90;75.90;;;;;;4976967;28;20368;-14
2022/05/07 10:19:44;;;;;;;11.98;9.18;;;20.10;76.30;;;;;;4976448;28;20031;-15
2022/05/07 10:22:23;;;;;;;15.77;10.45;;;20.20;75.10;;;;;;4976333;28;20066;-15
2022/05/07 10:25:13;;;;;;;15.55;10.50;;;20.40;73.10;;;;;;4976603;28;20402;-14
2022/05/07 10:27:42;;;;;;;14.82;10.57;;;20.50;73.20;;;;;;4976547;28;20033;-14
2022/05/07 10:30:17;;;;;;;13.73;10.70;;;20.40;73.60;;;;;;4976299;28;20034;-14
2022/05/07 10:32:57;;;;;;;14.02;10.05;;;20.40;73.40;;;;;;4976331;28;20027;-15
2022/05/07 10:35:54;;;;;;;13.65;9.98;;;20.30;73.70;;;;;;4974910;28;20033;-15
2022/05/07 10:38:23;;;;;;;10.85;7.93;;;20.30;71.30;;;;;;4975329;28;20039;-14
2022/05/07 10:40:52;;;;;;;12.73;9.73;;;20.30;73.10;;;;;;4976487;28;20136;-14
2022/05/07 10:43:59;;;;;;;14.77;11.38;;;20.30;73.30;;;;;;4976007;28;20050;-15
2022/05/07 10:46:36;;;;;;;14.27;10.63;;;20.20;72.20;;;;;;4954317;28;20365;-15
2022/05/07 10:49:06;;;;;;;14.90;9.82;;;20.10;73.10;;;;;;4954537;29;20098;-15
2022/05/07 10:51:34;;;;;;;11.98;8.82;;;20.10;73.30;;;;;;4938322;29;20159;-14
2022/05/07 10:54:05;;;;;;;11.77;8.80;;;20.30;73.90;;;;;;4954574;29;20194;-15
2022/05/07 10:56:33;;;;;;;13.90;10.90;;;20.50;73.60;;;;;;4954186;29;20032;-14
2022/05/07 10:59:01;;;;;;;15.13;11.48;;;20.70;72.70;;;;;;4954278;29;20027;-14
2022/05/07 11:01:31;;;;;;;13.35;9.32;;;20.80;71.60;;;;;;4954603;29;20023;-15
2022/05/07 11:04:07;;;;;;;13.65;9.23;;;20.70;71.70;;;;;;4954448;29;20299;-14
2022/05/07 11:06:51;;;;;;;15.23;9.55;;;20.50;71.80;;;;;;4953567;29;20605;-15
2022/05/07 11:09:20;;;;;;;13.88;10.30;;;20.30;70.40;;;;;;4954243;29;20043;-14
2022/05/07 11:11:49;;;;;;;12.02;9.13;;;20.30;71.70;;;;;;4954032;29;20505;-14
2022/05/07 11:14:30;;;;;;;11.98;7.53;;;20.30;71.60;;;;;;4953913;29;20142;-15
2022/05/07 11:16:58;;;;;;;10.82;7.47;;;20.30;69.10;;;;;;4953965;29;20094;-13
2022/05/07 11:19:33;;;;;;;12.68;7.70;;;20.30;70.30;;;;;;4953998;29;20019;-14
2022/05/07 11:22:00;;;;;;;10.95;8.05;;;20.30;69.90;;;;;;4958970;28;20050;-14
2022/05/07 11:24:28;;;;;;;12.63;7.65;;;20.20;69.10;;;;;;4975272;28;20037;-14
2022/05/07 11:27:02;;;;;;;10.43;6.93;;;20.10;68.40;;;;;;4975117;28;20490;-14
2022/05/07 11:29:30;;;;;;;12.43;8.82;;;20.10;68.80;;;;;;4975482;28;20034;-14
2022/05/07 11:32:05;;;;;;;12.00;8.98;;;20.10;68.80;;;;;;4975226;28;20386;-14
2022/05/07 11:34:34;;;;;;;12.10;7.97;;;20.00;68.60;;;;;;4974703;28;20027;-13
2022/05/07 11:37:14;;;;;;;13.93;7.97;;;20.00;68.90;;;;;;4975086;28;20497;-14
2022/05/07 11:40:01;;;;;;;11.32;8.75;;;20.20;67.70;;;;;;4974915;28;20391;-14
2022/05/07 11:42:49;;;;;;;14.57;9.80;;;20.30;68.80;;;;;;4974606;28;20085;-14
2022/05/07 11:45:26;;;;;;;12.20;8.70;;;20.40;70.50;;;;;;4974810;28;20019;-14
2022/05/07 11:48:00;;;;;;;11.50;8.40;;;20.60;69.50;;;;;;4974775;28;20082;-14
2022/05/07 11:50:28;;;;;;;11.32;7.68;;;20.70;66.90;;;;;;4974513;28;20031;-14
2022/05/07 11:52:56;;;;;;;13.02;7.80;;;20.70;67.10;;;;;;4974391;28;20039;-14
2022/05/07 11:55:29;;;;;;;10.95;8.02;;;20.60;67.60;;;;;;4974396;28;20490;-11
2022/05/07 11:57:56;;;;;;;11.77;8.73;;;20.60;67.00;;;;;;4974749;28;20506;-16
2022/05/07 12:00:25;;;;;;;10.50;7.75;;;20.70;67.90;;;;;;4974582;28;20042;-14
2022/05/07 12:03:02;;;;;;;11.68;8.50;;;20.70;65.80;;;;;;4974615;28;20469;-14
2022/05/07 12:05:39;;;;;;;11.27;8.02;;;20.60;65.80;;;;;;4974573;28;20054;-15
2022/05/07 12:08:14;;;;;;;12.68;7.82;;;20.70;64.90;;;;;;4974432;28;20154;-15
2022/05/07 12:10:40;;;;;;;12.43;8.30;;;20.80;65.80;;;;;;5025871;23;20046;-14
2022/05/07 12:13:06;;;;;;;11.68;7.63;;;20.70;65.00;;;;;;5060219;23;20058;-15
2022/05/07 12:18:17;;;;;;;9.45;6.15;;;21.00;64.20;;;;;;4974628;28;20038;-14
2022/05/07 12:20:43;;;;;;;8.88;6.45;;;21.20;64.20;;;;;;4974910;28;20027;-14
2022/05/07 12:31:24;;;;;;;8.15;5.00;;;21.20;62.20;;;;;;4974776;28;20030;-15
2022/05/07 12:33:50;;;;;;;8.35;5.45;;;21.30;60.30;;;;;;4972973;28;20099;-14
2022/05/07 12:36:16;;;;;;;7.13;4.68;;;21.20;61.40;;;;;;4974333;28;20092;-15
2022/05/07 12:38:43;;;;;;;10.20;5.45;;;21.40;61.20;;;;;;4974221;28;20413;-15
2022/05/07 12:41:09;;;;;;;7.45;4.90;;;21.40;61.90;;;;;;4974489;28;20030;-14
2022/05/07 12:43:35;;;;;;;9.35;5.40;;;21.70;61.50;;;;;;4974381;28;20051;-14
2022/05/07 12:46:02;;;;;;;7.07;5.13;;;21.90;59.70;;;;;;4974122;28;20062;-14
2022/05/07 12:48:27;;;;;;;7.07;4.90;;;21.90;59.30;;;;;;4973845;28;20528;-14
2022/05/07 12:50:54;;;;;;;7.10;4.70;;;21.90;59.90;;;;;;4974380;28;20034;-14
2022/05/07 12:53:20;;;;;;;7.13;4.20;;;21.80;59.20;;;;;;4972812;28;20033;-15
2022/05/07 12:55:47;;;;;;;8.07;4.47;;;21.70;60.60;;;;;;4974017;28;20031;-14
2022/05/07 12:58:13;;;;;;;7.53;4.10;;;21.60;60.70;;;;;;4974121;28;20023;-15
2022/05/07 13:00:40;;;;;;;6.32;4.07;;;21.80;60.00;;;;;;4974525;28;20106;-14
2022/05/07 13:03:09;;;;;;;6.93;4.10;;;21.80;60.50;;;;;;4974323;28;20102;-16
2022/05/07 13:05:38;;;;;;;4.82;3.67;;;21.90;61.30;;;;;;4976299;28;20034;-16
2022/05/07 13:08:05;;;;;;;5.03;3.20;;;21.80;60.90;;;;;;4977930;28;20053;-14
2022/05/07 13:10:38;;;;;;;7.60;3.55;;;21.70;61.60;;;;;;4977683;28;20027;-16
2022/05/07 13:13:04;;;;;;;4.53;3.33;;;21.60;59.70;;;;;;4977223;28;20407;-16
2022/05/07 13:15:31;;;;;;;4.35;3.50;;;21.50;61.20;;;;;;4977904;28;20038;-15
2022/05/07 13:17:58;;;;;;;5.85;3.70;;;21.50;61.70;;;;;;4977856;28;20390;-16
2022/05/07 13:20:25;;;;;;;5.50;3.70;;;21.30;62.30;;;;;;4977565;28;20027;-15
2022/05/07 13:22:52;;;;;;;5.97;3.58;;;21.10;62.60;;;;;;4977736;28;20097;-16
2022/05/07 13:25:19;;;;;;;4.90;3.50;;;21.10;61.80;;;;;;4977332;28;20031;-17
2022/05/07 13:27:47;;;;;;;5.50;3.63;;;21.00;61.90;;;;;;4976128;28;20078;-15